<?xml version="1.0" encoding="UTF-8"?>
<gpx  version="1.1"  creator="Verlag Esterbauer" xmlns:xsi="http://www.w3.org/2001/XMLSchema-instance" xmlns="http://www.topografix.com/GPX/1/1"  xsi:schemaLocation="http://www.topografix.com/GPX/1/1 http://www.topografix.com/GPX/1/1/gpx.xsd">
<trk>
  <name>wf-gran_T20</name>
  <trkseg>
    <trkpt lat="28.080593" lon="-15.671263">
    <time>1971-01-13T12:01:19Z</time>
    </trkpt>
    <trkpt lat="28.080604" lon="-15.671191">
    <time>1971-01-13T12:01:25Z</time>
    </trkpt>
    <trkpt lat="28.080556" lon="-15.671162">
    <time>1971-01-13T12:01:31Z</time>
    </trkpt>
    <trkpt lat="28.08049" lon="-15.671103">
    <time>1971-01-13T12:01:39Z</time>
    </trkpt>
    <trkpt lat="28.080343" lon="-15.670858">
    <time>1971-01-13T12:02:05Z</time>
    </trkpt>
    <trkpt lat="28.080299" lon="-15.670712">
    <time>1971-01-13T12:02:19Z</time>
    </trkpt>
    <trkpt lat="28.080263" lon="-15.670595">
    <time>1971-01-13T12:02:30Z</time>
    </trkpt>
    <trkpt lat="28.080132" lon="-15.670477">
    <time>1971-01-13T12:02:47Z</time>
    </trkpt>
    <trkpt lat="28.080014" lon="-15.670426">
    <time>1971-01-13T12:02:59Z</time>
    </trkpt>
    <trkpt lat="28.079995" lon="-15.670487">
    <time>1971-01-13T12:03:05Z</time>
    </trkpt>
    <trkpt lat="28.079611" lon="-15.670434">
    <time>1971-01-13T12:03:44Z</time>
    </trkpt>
    <trkpt lat="28.079539" lon="-15.670432">
    <time>1971-01-13T12:03:51Z</time>
    </trkpt>
    <trkpt lat="28.079342" lon="-15.67056">
    <time>1971-01-13T12:04:13Z</time>
    </trkpt>
    <trkpt lat="28.079101" lon="-15.670544">
    <time>1971-01-13T12:04:37Z</time>
    </trkpt>
    <trkpt lat="28.078634" lon="-15.670391">
    <time>1971-01-13T12:05:26Z</time>
    </trkpt>
    <trkpt lat="28.078371" lon="-15.670288">
    <time>1971-01-13T12:05:54Z</time>
    </trkpt>
    <trkpt lat="28.078365" lon="-15.670118">
    <time>1971-01-13T12:06:09Z</time>
    </trkpt>
    <trkpt lat="28.078504" lon="-15.66988">
    <time>1971-01-13T12:06:34Z</time>
    </trkpt>
    <trkpt lat="28.078456" lon="-15.669818">
    <time>1971-01-13T12:06:41Z</time>
    </trkpt>
    <trkpt lat="28.078151" lon="-15.669599">
    <time>1971-01-13T12:07:17Z</time>
    </trkpt>
    <trkpt lat="28.078065" lon="-15.669562">
    <time>1971-01-13T12:07:26Z</time>
    </trkpt>
    <trkpt lat="28.077973" lon="-15.669414">
    <time>1971-01-13T12:07:42Z</time>
    </trkpt>
    <trkpt lat="28.077818" lon="-15.669402">
    <time>1971-01-13T12:07:58Z</time>
    </trkpt>
    <trkpt lat="28.077747" lon="-15.669415">
    <time>1971-01-13T12:08:05Z</time>
    </trkpt>
    <trkpt lat="28.077628" lon="-15.669399">
    <time>1971-01-13T12:08:17Z</time>
    </trkpt>
    <trkpt lat="28.077503" lon="-15.669351">
    <time>1971-01-13T12:08:30Z</time>
    </trkpt>
    <trkpt lat="28.077071" lon="-15.669054">
    <time>1971-01-13T12:09:21Z</time>
    </trkpt>
    <trkpt lat="28.076916" lon="-15.668909">
    <time>1971-01-13T12:09:41Z</time>
    </trkpt>
    <trkpt lat="28.076868" lon="-15.668869">
    <time>1971-01-13T12:09:47Z</time>
    </trkpt>
    <trkpt lat="28.076781" lon="-15.668775">
    <time>1971-01-13T12:09:59Z</time>
    </trkpt>
    <trkpt lat="28.076714" lon="-15.668712">
    <time>1971-01-13T12:10:07Z</time>
    </trkpt>
    <trkpt lat="28.076548" lon="-15.668621">
    <time>1971-01-13T12:10:26Z</time>
    </trkpt>
    <trkpt lat="28.076419" lon="-15.668536">
    <time>1971-01-13T12:10:41Z</time>
    </trkpt>
    <trkpt lat="28.076318" lon="-15.668399">
    <time>1971-01-13T12:10:56Z</time>
    </trkpt>
    <trkpt lat="28.076221" lon="-15.668223">
    <time>1971-01-13T12:11:15Z</time>
    </trkpt>
    <trkpt lat="28.076196" lon="-15.668125">
    <time>1971-01-13T12:11:24Z</time>
    </trkpt>
    <trkpt lat="28.076198" lon="-15.668055">
    <time>1971-01-13T12:11:30Z</time>
    </trkpt>
    <trkpt lat="28.076125" lon="-15.66793">
    <time>1971-01-13T12:11:43Z</time>
    </trkpt>
    <trkpt lat="28.076096" lon="-15.667792">
    <time>1971-01-13T12:11:56Z</time>
    </trkpt>
    <trkpt lat="28.076103" lon="-15.667469">
    <time>1971-01-13T12:12:24Z</time>
    </trkpt>
    <trkpt lat="28.076092" lon="-15.667394">
    <time>1971-01-13T12:12:31Z</time>
    </trkpt>
    <trkpt lat="28.076051" lon="-15.667365">
    <time>1971-01-13T12:12:36Z</time>
    </trkpt>
    <trkpt lat="28.075878" lon="-15.667198">
    <time>1971-01-13T12:12:58Z</time>
    </trkpt>
    <trkpt lat="28.07578" lon="-15.667152">
    <time>1971-01-13T12:13:09Z</time>
    </trkpt>
    <trkpt lat="28.07558" lon="-15.667129">
    <time>1971-01-13T12:13:29Z</time>
    </trkpt>
    <trkpt lat="28.075349" lon="-15.666989">
    <time>1971-01-13T12:13:55Z</time>
    </trkpt>
    <trkpt lat="28.075127" lon="-15.666743">
    <time>1971-01-13T12:14:26Z</time>
    </trkpt>
    <trkpt lat="28.074999" lon="-15.666625">
    <time>1971-01-13T12:14:43Z</time>
    </trkpt>
    <trkpt lat="28.074967" lon="-15.66658">
    <time>1971-01-13T12:14:48Z</time>
    </trkpt>
    <trkpt lat="28.074882" lon="-15.666478">
    <time>1971-01-13T12:15:00Z</time>
    </trkpt>
    <trkpt lat="28.074843" lon="-15.66642">
    <time>1971-01-13T12:15:07Z</time>
    </trkpt>
    <trkpt lat="28.074745" lon="-15.66633">
    <time>1971-01-13T12:15:19Z</time>
    </trkpt>
    <trkpt lat="28.074692" lon="-15.666245">
    <time>1971-01-13T12:15:28Z</time>
    </trkpt>
    <trkpt lat="28.074642" lon="-15.666179">
    <time>1971-01-13T12:15:36Z</time>
    </trkpt>
    <trkpt lat="28.074596" lon="-15.666121">
    <time>1971-01-13T12:15:43Z</time>
    </trkpt>
    <trkpt lat="28.074531" lon="-15.666065">
    <time>1971-01-13T12:15:51Z</time>
    </trkpt>
    <trkpt lat="28.074471" lon="-15.666048">
    <time>1971-01-13T12:15:57Z</time>
    </trkpt>
    <trkpt lat="28.074176" lon="-15.665796">
    <time>1971-01-13T12:16:34Z</time>
    </trkpt>
    <trkpt lat="28.073917" lon="-15.665677">
    <time>1971-01-13T12:17:02Z</time>
    </trkpt>
    <trkpt lat="28.073797" lon="-15.665569">
    <time>1971-01-13T12:17:17Z</time>
    </trkpt>
    <trkpt lat="28.07361" lon="-15.665474">
    <time>1971-01-13T12:17:38Z</time>
    </trkpt>
    <trkpt lat="28.073551" lon="-15.665472">
    <time>1971-01-13T12:17:44Z</time>
    </trkpt>
    <trkpt lat="28.073012" lon="-15.665505">
    <time>1971-01-13T12:18:37Z</time>
    </trkpt>
    <trkpt lat="28.072893" lon="-15.66538">
    <time>1971-01-13T12:18:54Z</time>
    </trkpt>
    <trkpt lat="28.072779" lon="-15.665245">
    <time>1971-01-13T12:19:10Z</time>
    </trkpt>
    <trkpt lat="28.072673" lon="-15.665093">
    <time>1971-01-13T12:19:27Z</time>
    </trkpt>
    <trkpt lat="28.072616" lon="-15.665035">
    <time>1971-01-13T12:19:35Z</time>
    </trkpt>
    <trkpt lat="28.072566" lon="-15.664943">
    <time>1971-01-13T12:19:44Z</time>
    </trkpt>
    <trkpt lat="28.072492" lon="-15.664757">
    <time>1971-01-13T12:20:02Z</time>
    </trkpt>
    <trkpt lat="28.072445" lon="-15.664678">
    <time>1971-01-13T12:20:11Z</time>
    </trkpt>
    <trkpt lat="28.07238" lon="-15.664529">
    <time>1971-01-13T12:20:25Z</time>
    </trkpt>
    <trkpt lat="28.072302" lon="-15.664384">
    <time>1971-01-13T12:20:40Z</time>
    </trkpt>
    <trkpt lat="28.072255" lon="-15.664234">
    <time>1971-01-13T12:20:54Z</time>
    </trkpt>
    <trkpt lat="28.072185" lon="-15.664146">
    <time>1971-01-13T12:21:05Z</time>
    </trkpt>
    <trkpt lat="28.072142" lon="-15.664046">
    <time>1971-01-13T12:21:15Z</time>
    </trkpt>
    <trkpt lat="28.071968" lon="-15.663788">
    <time>1971-01-13T12:21:43Z</time>
    </trkpt>
    <trkpt lat="28.071852" lon="-15.663688">
    <time>1971-01-13T12:21:58Z</time>
    </trkpt>
    <trkpt lat="28.071744" lon="-15.66361">
    <time>1971-01-13T12:22:11Z</time>
    </trkpt>
    <trkpt lat="28.071657" lon="-15.663581">
    <time>1971-01-13T12:22:20Z</time>
    </trkpt>
    <trkpt lat="28.071512" lon="-15.66358">
    <time>1971-01-13T12:22:34Z</time>
    </trkpt>
    <trkpt lat="28.071183" lon="-15.663618">
    <time>1971-01-13T12:23:07Z</time>
    </trkpt>
    <trkpt lat="28.0711" lon="-15.663603">
    <time>1971-01-13T12:23:16Z</time>
    </trkpt>
    <trkpt lat="28.070819" lon="-15.663528">
    <time>1971-01-13T12:23:44Z</time>
    </trkpt>
    <trkpt lat="28.070789" lon="-15.663427">
    <time>1971-01-13T12:23:54Z</time>
    </trkpt>
    <trkpt lat="28.07075" lon="-15.663328">
    <time>1971-01-13T12:24:03Z</time>
    </trkpt>
    <trkpt lat="28.070587" lon="-15.66312">
    <time>1971-01-13T12:24:28Z</time>
    </trkpt>
    <trkpt lat="28.070527" lon="-15.663063">
    <time>1971-01-13T12:24:36Z</time>
    </trkpt>
    <trkpt lat="28.070359" lon="-15.662717">
    <time>1971-01-13T12:25:11Z</time>
    </trkpt>
    <trkpt lat="28.07028" lon="-15.662624">
    <time>1971-01-13T12:25:22Z</time>
    </trkpt>
    <trkpt lat="28.070209" lon="-15.662582">
    <time>1971-01-13T12:25:30Z</time>
    </trkpt>
    <trkpt lat="28.070211" lon="-15.662526">
    <time>1971-01-13T12:25:35Z</time>
    </trkpt>
    <trkpt lat="28.070156" lon="-15.662509">
    <time>1971-01-13T12:25:41Z</time>
    </trkpt>
    <trkpt lat="28.070037" lon="-15.662433">
    <time>1971-01-13T12:25:54Z</time>
    </trkpt>
    <trkpt lat="28.070025" lon="-15.662367">
    <time>1971-01-13T12:26:00Z</time>
    </trkpt>
    <trkpt lat="28.069871" lon="-15.662396">
    <time>1971-01-13T12:26:16Z</time>
    </trkpt>
    <trkpt lat="28.06975" lon="-15.66244">
    <time>1971-01-13T12:26:28Z</time>
    </trkpt>
    <trkpt lat="28.069657" lon="-15.662485">
    <time>1971-01-13T12:26:39Z</time>
    </trkpt>
    <trkpt lat="28.069535" lon="-15.662413">
    <time>1971-01-13T12:26:52Z</time>
    </trkpt>
    <trkpt lat="28.06952" lon="-15.662346">
    <time>1971-01-13T12:26:58Z</time>
    </trkpt>
    <trkpt lat="28.069506" lon="-15.662409">
    <time>1971-01-13T12:27:04Z</time>
    </trkpt>
    <trkpt lat="28.069434" lon="-15.662486">
    <time>1971-01-13T12:27:14Z</time>
    </trkpt>
    <trkpt lat="28.069304" lon="-15.662413">
    <time>1971-01-13T12:27:28Z</time>
    </trkpt>
    <trkpt lat="28.069242" lon="-15.662368">
    <time>1971-01-13T12:27:36Z</time>
    </trkpt>
    <trkpt lat="28.069182" lon="-15.662364">
    <time>1971-01-13T12:27:42Z</time>
    </trkpt>
    <trkpt lat="28.069164" lon="-15.662297">
    <time>1971-01-13T12:27:48Z</time>
    </trkpt>
    <trkpt lat="28.069133" lon="-15.662239">
    <time>1971-01-13T12:27:54Z</time>
    </trkpt>
    <trkpt lat="28.069047" lon="-15.662035">
    <time>1971-01-13T12:28:14Z</time>
    </trkpt>
    <trkpt lat="28.069006" lon="-15.661977">
    <time>1971-01-13T12:28:20Z</time>
    </trkpt>
    <trkpt lat="28.068992" lon="-15.661906">
    <time>1971-01-13T12:28:27Z</time>
    </trkpt>
    <trkpt lat="28.068823" lon="-15.661603">
    <time>1971-01-13T12:28:59Z</time>
    </trkpt>
    <trkpt lat="28.068777" lon="-15.661446">
    <time>1971-01-13T12:29:13Z</time>
    </trkpt>
    <trkpt lat="28.068763" lon="-15.661214">
    <time>1971-01-13T12:29:34Z</time>
    </trkpt>
    <trkpt lat="28.06877" lon="-15.661128">
    <time>1971-01-13T12:29:41Z</time>
    </trkpt>
    <trkpt lat="28.068785" lon="-15.661067">
    <time>1971-01-13T12:29:47Z</time>
    </trkpt>
    <trkpt lat="28.06883" lon="-15.660775">
    <time>1971-01-13T12:30:13Z</time>
    </trkpt>
    <trkpt lat="28.068845" lon="-15.660573">
    <time>1971-01-13T12:30:31Z</time>
    </trkpt>
    <trkpt lat="28.068809" lon="-15.660268">
    <time>1971-01-13T12:30:58Z</time>
    </trkpt>
    <trkpt lat="28.068843" lon="-15.660219">
    <time>1971-01-13T12:31:04Z</time>
    </trkpt>
    <trkpt lat="28.068805" lon="-15.660115">
    <time>1971-01-13T12:31:14Z</time>
    </trkpt>
    <trkpt lat="28.068727" lon="-15.660008">
    <time>1971-01-13T12:31:26Z</time>
    </trkpt>
    <trkpt lat="28.068695" lon="-15.659832">
    <time>1971-01-13T12:31:42Z</time>
    </trkpt>
    <trkpt lat="28.068686" lon="-15.659725">
    <time>1971-01-13T12:31:51Z</time>
    </trkpt>
    <trkpt lat="28.068686" lon="-15.65965">
    <time>1971-01-13T12:31:58Z</time>
    </trkpt>
    <trkpt lat="28.068691" lon="-15.659596">
    <time>1971-01-13T12:32:03Z</time>
    </trkpt>
    <trkpt lat="28.068587" lon="-15.659661">
    <time>1971-01-13T12:32:14Z</time>
    </trkpt>
    <trkpt lat="28.068528" lon="-15.659699">
    <time>1971-01-13T12:32:21Z</time>
    </trkpt>
    <trkpt lat="28.068402" lon="-15.659757">
    <time>1971-01-13T12:32:35Z</time>
    </trkpt>
    <trkpt lat="28.068356" lon="-15.659769">
    <time>1971-01-13T12:32:40Z</time>
    </trkpt>
    <trkpt lat="28.068321" lon="-15.659857">
    <time>1971-01-13T12:32:48Z</time>
    </trkpt>
    <trkpt lat="28.068288" lon="-15.659893">
    <time>1971-01-13T12:32:53Z</time>
    </trkpt>
    <trkpt lat="28.068281" lon="-15.660034">
    <time>1971-01-13T12:33:05Z</time>
    </trkpt>
    <trkpt lat="28.068224" lon="-15.660029">
    <time>1971-01-13T12:33:11Z</time>
    </trkpt>
    <trkpt lat="28.068202" lon="-15.659942">
    <time>1971-01-13T12:33:19Z</time>
    </trkpt>
    <trkpt lat="28.068152" lon="-15.659999">
    <time>1971-01-13T12:33:26Z</time>
    </trkpt>
    <trkpt lat="28.068173" lon="-15.66007">
    <time>1971-01-13T12:33:32Z</time>
    </trkpt>
    <trkpt lat="28.068135" lon="-15.660162">
    <time>1971-01-13T12:33:41Z</time>
    </trkpt>
    <trkpt lat="28.068038" lon="-15.660196">
    <time>1971-01-13T12:33:52Z</time>
    </trkpt>
    <trkpt lat="28.067897" lon="-15.660048">
    <time>1971-01-13T12:34:11Z</time>
    </trkpt>
    <trkpt lat="28.067847" lon="-15.659977">
    <time>1971-01-13T12:34:19Z</time>
    </trkpt>
    <trkpt lat="28.067831" lon="-15.659895">
    <time>1971-01-13T12:34:26Z</time>
    </trkpt>
    <trkpt lat="28.0678" lon="-15.659657">
    <time>1971-01-13T12:34:47Z</time>
    </trkpt>
    <trkpt lat="28.06784" lon="-15.659592">
    <time>1971-01-13T12:34:54Z</time>
    </trkpt>
    <trkpt lat="28.067888" lon="-15.659495">
    <time>1971-01-13T12:35:04Z</time>
    </trkpt>
    <trkpt lat="28.067913" lon="-15.659377">
    <time>1971-01-13T12:35:15Z</time>
    </trkpt>
    <trkpt lat="28.067871" lon="-15.659313">
    <time>1971-01-13T12:35:22Z</time>
    </trkpt>
    <trkpt lat="28.067923" lon="-15.659407">
    <time>1971-01-13T12:35:32Z</time>
    </trkpt>
    <trkpt lat="28.067938" lon="-15.659493">
    <time>1971-01-13T12:35:39Z</time>
    </trkpt>
    <trkpt lat="28.067942" lon="-15.659562">
    <time>1971-01-13T12:35:46Z</time>
    </trkpt>
    <trkpt lat="28.067922" lon="-15.659615">
    <time>1971-01-13T12:35:51Z</time>
    </trkpt>
    <trkpt lat="28.067969" lon="-15.659634">
    <time>1971-01-13T12:35:56Z</time>
    </trkpt>
    <trkpt lat="28.067924" lon="-15.659689">
    <time>1971-01-13T12:36:02Z</time>
    </trkpt>
    <trkpt lat="28.067832" lon="-15.659713">
    <time>1971-01-13T12:36:12Z</time>
    </trkpt>
    <trkpt lat="28.0678" lon="-15.659779">
    <time>1971-01-13T12:36:18Z</time>
    </trkpt>
    <trkpt lat="28.067741" lon="-15.659795">
    <time>1971-01-13T12:36:24Z</time>
    </trkpt>
    <trkpt lat="28.06764" lon="-15.659766">
    <time>1971-01-13T12:36:35Z</time>
    </trkpt>
    <trkpt lat="28.067489" lon="-15.659775">
    <time>1971-01-13T12:36:50Z</time>
    </trkpt>
    <trkpt lat="28.067599" lon="-15.6598">
    <time>1971-01-13T12:37:01Z</time>
    </trkpt>
    <trkpt lat="28.067596" lon="-15.659871">
    <time>1971-01-13T12:37:07Z</time>
    </trkpt>
    <trkpt lat="28.067617" lon="-15.659937">
    <time>1971-01-13T12:37:14Z</time>
    </trkpt>
    <trkpt lat="28.067474" lon="-15.659812">
    <time>1971-01-13T12:37:32Z</time>
    </trkpt>
    <trkpt lat="28.067433" lon="-15.659782">
    <time>1971-01-13T12:37:36Z</time>
    </trkpt>
    <trkpt lat="28.067442" lon="-15.659939">
    <time>1971-01-13T12:37:50Z</time>
    </trkpt>
    <trkpt lat="28.067459" lon="-15.66007">
    <time>1971-01-13T12:38:02Z</time>
    </trkpt>
    <trkpt lat="28.067504" lon="-15.660179">
    <time>1971-01-13T12:38:13Z</time>
    </trkpt>
    <trkpt lat="28.067554" lon="-15.660228">
    <time>1971-01-13T12:38:19Z</time>
    </trkpt>
    <trkpt lat="28.067593" lon="-15.660304">
    <time>1971-01-13T12:38:27Z</time>
    </trkpt>
    <trkpt lat="28.067655" lon="-15.66036">
    <time>1971-01-13T12:38:35Z</time>
    </trkpt>
    <trkpt lat="28.067665" lon="-15.660449">
    <time>1971-01-13T12:38:43Z</time>
    </trkpt>
    <trkpt lat="28.067725" lon="-15.660628">
    <time>1971-01-13T12:39:00Z</time>
    </trkpt>
    <trkpt lat="28.067693" lon="-15.660788">
    <time>1971-01-13T12:39:14Z</time>
    </trkpt>
    <trkpt lat="28.067684" lon="-15.660983">
    <time>1971-01-13T12:39:31Z</time>
    </trkpt>
    <trkpt lat="28.067684" lon="-15.661117">
    <time>1971-01-13T12:39:43Z</time>
    </trkpt>
    <trkpt lat="28.067631" lon="-15.661122">
    <time>1971-01-13T12:39:48Z</time>
    </trkpt>
    <trkpt lat="28.067666" lon="-15.661174">
    <time>1971-01-13T12:39:54Z</time>
    </trkpt>
    <trkpt lat="28.067468" lon="-15.661214">
    <time>1971-01-13T12:40:14Z</time>
    </trkpt>
    <trkpt lat="28.067382" lon="-15.661218">
    <time>1971-01-13T12:40:23Z</time>
    </trkpt>
    <trkpt lat="28.067229" lon="-15.661183">
    <time>1971-01-13T12:40:38Z</time>
    </trkpt>
    <trkpt lat="28.067097" lon="-15.661122">
    <time>1971-01-13T12:40:53Z</time>
    </trkpt>
    <trkpt lat="28.06704" lon="-15.661044">
    <time>1971-01-13T12:41:02Z</time>
    </trkpt>
    <trkpt lat="28.06695" lon="-15.660951">
    <time>1971-01-13T12:41:14Z</time>
    </trkpt>
    <trkpt lat="28.066698" lon="-15.660567">
    <time>1971-01-13T12:41:56Z</time>
    </trkpt>
    <trkpt lat="28.066552" lon="-15.660416">
    <time>1971-01-13T12:42:16Z</time>
    </trkpt>
    <trkpt lat="28.066484" lon="-15.660425">
    <time>1971-01-13T12:42:23Z</time>
    </trkpt>
    <trkpt lat="28.066386" lon="-15.660444">
    <time>1971-01-13T12:42:33Z</time>
    </trkpt>
    <trkpt lat="28.066224" lon="-15.660379">
    <time>1971-01-13T12:42:50Z</time>
    </trkpt>
    <trkpt lat="28.066114" lon="-15.660381">
    <time>1971-01-13T12:43:01Z</time>
    </trkpt>
    <trkpt lat="28.065737" lon="-15.66021">
    <time>1971-01-13T12:43:41Z</time>
    </trkpt>
    <trkpt lat="28.06567" lon="-15.66015">
    <time>1971-01-13T12:43:50Z</time>
    </trkpt>
    <trkpt lat="28.065644" lon="-15.660095">
    <time>1971-01-13T12:43:55Z</time>
    </trkpt>
    <trkpt lat="28.065614" lon="-15.65997">
    <time>1971-01-13T12:44:07Z</time>
    </trkpt>
    <trkpt lat="28.065498" lon="-15.659802">
    <time>1971-01-13T12:44:25Z</time>
    </trkpt>
    <trkpt lat="28.06541" lon="-15.659696">
    <time>1971-01-13T12:44:38Z</time>
    </trkpt>
    <trkpt lat="28.06523" lon="-15.659538">
    <time>1971-01-13T12:45:01Z</time>
    </trkpt>
    <trkpt lat="28.065407" lon="-15.65957">
    <time>1971-01-13T12:45:19Z</time>
    </trkpt>
    <trkpt lat="28.065566" lon="-15.659629">
    <time>1971-01-13T12:45:36Z</time>
    </trkpt>
    <trkpt lat="28.06585" lon="-15.659903">
    <time>1971-01-13T12:46:13Z</time>
    </trkpt>
    <trkpt lat="28.065866" lon="-15.65996">
    <time>1971-01-13T12:46:18Z</time>
    </trkpt>
    <trkpt lat="28.065934" lon="-15.660112">
    <time>1971-01-13T12:46:33Z</time>
    </trkpt>
    <trkpt lat="28.066034" lon="-15.660172">
    <time>1971-01-13T12:46:44Z</time>
    </trkpt>
    <trkpt lat="28.066219" lon="-15.660231">
    <time>1971-01-13T12:47:04Z</time>
    </trkpt>
    <trkpt lat="28.066504" lon="-15.660274">
    <time>1971-01-13T12:47:32Z</time>
    </trkpt>
    <trkpt lat="28.066649" lon="-15.660275">
    <time>1971-01-13T12:47:47Z</time>
    </trkpt>
    <trkpt lat="28.066864" lon="-15.660443">
    <time>1971-01-13T12:48:13Z</time>
    </trkpt>
    <trkpt lat="28.066932" lon="-15.66054">
    <time>1971-01-13T12:48:24Z</time>
    </trkpt>
    <trkpt lat="28.067063" lon="-15.66081">
    <time>1971-01-13T12:48:51Z</time>
    </trkpt>
    <trkpt lat="28.067167" lon="-15.660891">
    <time>1971-01-13T12:49:04Z</time>
    </trkpt>
    <trkpt lat="28.067257" lon="-15.660946">
    <time>1971-01-13T12:49:14Z</time>
    </trkpt>
    <trkpt lat="28.067375" lon="-15.661036">
    <time>1971-01-13T12:49:28Z</time>
    </trkpt>
    <trkpt lat="28.067463" lon="-15.661086">
    <time>1971-01-13T12:49:38Z</time>
    </trkpt>
    <trkpt lat="28.067594" lon="-15.660829">
    <time>1971-01-13T12:50:04Z</time>
    </trkpt>
    <trkpt lat="28.067591" lon="-15.660768">
    <time>1971-01-13T12:50:09Z</time>
    </trkpt>
    <trkpt lat="28.067594" lon="-15.660829">
    <time>1971-01-13T12:50:15Z</time>
    </trkpt>
    <trkpt lat="28.067463" lon="-15.661086">
    <time>1971-01-13T12:50:41Z</time>
    </trkpt>
    <trkpt lat="28.067375" lon="-15.661036">
    <time>1971-01-13T12:50:51Z</time>
    </trkpt>
    <trkpt lat="28.067257" lon="-15.660946">
    <time>1971-01-13T12:51:05Z</time>
    </trkpt>
    <trkpt lat="28.067167" lon="-15.660891">
    <time>1971-01-13T12:51:15Z</time>
    </trkpt>
    <trkpt lat="28.067063" lon="-15.66081">
    <time>1971-01-13T12:51:28Z</time>
    </trkpt>
    <trkpt lat="28.066932" lon="-15.66054">
    <time>1971-01-13T12:51:55Z</time>
    </trkpt>
    <trkpt lat="28.066864" lon="-15.660443">
    <time>1971-01-13T12:52:06Z</time>
    </trkpt>
    <trkpt lat="28.066649" lon="-15.660275">
    <time>1971-01-13T12:52:32Z</time>
    </trkpt>
    <trkpt lat="28.066504" lon="-15.660274">
    <time>1971-01-13T12:52:47Z</time>
    </trkpt>
    <trkpt lat="28.066198" lon="-15.660226">
    <time>1971-01-13T12:53:17Z</time>
    </trkpt>
    <trkpt lat="28.066034" lon="-15.660172">
    <time>1971-01-13T12:53:34Z</time>
    </trkpt>
    <trkpt lat="28.065934" lon="-15.660112">
    <time>1971-01-13T12:53:46Z</time>
    </trkpt>
    <trkpt lat="28.065866" lon="-15.65996">
    <time>1971-01-13T12:54:01Z</time>
    </trkpt>
    <trkpt lat="28.06585" lon="-15.659903">
    <time>1971-01-13T12:54:06Z</time>
    </trkpt>
    <trkpt lat="28.065566" lon="-15.659629">
    <time>1971-01-13T12:54:43Z</time>
    </trkpt>
    <trkpt lat="28.065407" lon="-15.65957">
    <time>1971-01-13T12:55:00Z</time>
    </trkpt>
    <trkpt lat="28.065245" lon="-15.659534">
    <time>1971-01-13T12:55:16Z</time>
    </trkpt>
    <trkpt lat="28.065331" lon="-15.65963">
    <time>1971-01-13T12:55:28Z</time>
    </trkpt>
    <trkpt lat="28.06541" lon="-15.659696">
    <time>1971-01-13T12:55:38Z</time>
    </trkpt>
    <trkpt lat="28.065498" lon="-15.659802">
    <time>1971-01-13T12:55:51Z</time>
    </trkpt>
    <trkpt lat="28.065614" lon="-15.65997">
    <time>1971-01-13T12:56:10Z</time>
    </trkpt>
    <trkpt lat="28.065644" lon="-15.660095">
    <time>1971-01-13T12:56:21Z</time>
    </trkpt>
    <trkpt lat="28.06567" lon="-15.66015">
    <time>1971-01-13T12:56:27Z</time>
    </trkpt>
    <trkpt lat="28.065737" lon="-15.66021">
    <time>1971-01-13T12:56:35Z</time>
    </trkpt>
    <trkpt lat="28.066114" lon="-15.660381">
    <time>1971-01-13T12:57:16Z</time>
    </trkpt>
    <trkpt lat="28.066224" lon="-15.660379">
    <time>1971-01-13T12:57:27Z</time>
    </trkpt>
    <trkpt lat="28.066386" lon="-15.660444">
    <time>1971-01-13T12:57:44Z</time>
    </trkpt>
    <trkpt lat="28.06645" lon="-15.660449">
    <time>1971-01-13T12:57:50Z</time>
    </trkpt>
    <trkpt lat="28.066552" lon="-15.660416">
    <time>1971-01-13T12:58:01Z</time>
    </trkpt>
    <trkpt lat="28.066698" lon="-15.660567">
    <time>1971-01-13T12:58:21Z</time>
    </trkpt>
    <trkpt lat="28.066788" lon="-15.66071">
    <time>1971-01-13T12:58:36Z</time>
    </trkpt>
    <trkpt lat="28.06695" lon="-15.660951">
    <time>1971-01-13T12:59:03Z</time>
    </trkpt>
    <trkpt lat="28.06704" lon="-15.661044">
    <time>1971-01-13T12:59:15Z</time>
    </trkpt>
    <trkpt lat="28.067097" lon="-15.661122">
    <time>1971-01-13T12:59:24Z</time>
    </trkpt>
    <trkpt lat="28.067229" lon="-15.661183">
    <time>1971-01-13T12:59:38Z</time>
    </trkpt>
    <trkpt lat="28.067382" lon="-15.661218">
    <time>1971-01-13T12:59:54Z</time>
    </trkpt>
    <trkpt lat="28.067434" lon="-15.661224">
    <time>1971-01-13T12:59:59Z</time>
    </trkpt>
    <trkpt lat="28.067656" lon="-15.661194">
    <time>1971-01-13T13:00:21Z</time>
    </trkpt>
    <trkpt lat="28.067637" lon="-15.661138">
    <time>1971-01-13T13:00:27Z</time>
    </trkpt>
    <trkpt lat="28.067684" lon="-15.661117">
    <time>1971-01-13T13:00:32Z</time>
    </trkpt>
    <trkpt lat="28.067687" lon="-15.660809">
    <time>1971-01-13T13:00:59Z</time>
    </trkpt>
    <trkpt lat="28.067725" lon="-15.660628">
    <time>1971-01-13T13:01:15Z</time>
    </trkpt>
    <trkpt lat="28.067665" lon="-15.660449">
    <time>1971-01-13T13:01:32Z</time>
    </trkpt>
    <trkpt lat="28.067655" lon="-15.66036">
    <time>1971-01-13T13:01:40Z</time>
    </trkpt>
    <trkpt lat="28.067593" lon="-15.660304">
    <time>1971-01-13T13:01:48Z</time>
    </trkpt>
    <trkpt lat="28.067554" lon="-15.660228">
    <time>1971-01-13T13:01:56Z</time>
    </trkpt>
    <trkpt lat="28.067504" lon="-15.660179">
    <time>1971-01-13T13:02:02Z</time>
    </trkpt>
    <trkpt lat="28.067459" lon="-15.66007">
    <time>1971-01-13T13:02:13Z</time>
    </trkpt>
    <trkpt lat="28.067442" lon="-15.659939">
    <time>1971-01-13T13:02:25Z</time>
    </trkpt>
    <trkpt lat="28.067433" lon="-15.659782">
    <time>1971-01-13T13:02:39Z</time>
    </trkpt>
    <trkpt lat="28.067474" lon="-15.659812">
    <time>1971-01-13T13:02:43Z</time>
    </trkpt>
    <trkpt lat="28.067607" lon="-15.659942">
    <time>1971-01-13T13:03:01Z</time>
    </trkpt>
    <trkpt lat="28.067596" lon="-15.659889">
    <time>1971-01-13T13:03:06Z</time>
    </trkpt>
    <trkpt lat="28.067589" lon="-15.659798">
    <time>1971-01-13T13:03:14Z</time>
    </trkpt>
    <trkpt lat="28.067489" lon="-15.659775">
    <time>1971-01-13T13:03:24Z</time>
    </trkpt>
    <trkpt lat="28.06764" lon="-15.659766">
    <time>1971-01-13T13:03:39Z</time>
    </trkpt>
    <trkpt lat="28.067721" lon="-15.659793">
    <time>1971-01-13T13:03:48Z</time>
    </trkpt>
    <trkpt lat="28.067803" lon="-15.659775">
    <time>1971-01-13T13:03:56Z</time>
    </trkpt>
    <trkpt lat="28.067832" lon="-15.659713">
    <time>1971-01-13T13:04:02Z</time>
    </trkpt>
    <trkpt lat="28.067965" lon="-15.659679">
    <time>1971-01-13T13:04:16Z</time>
    </trkpt>
    <trkpt lat="28.067922" lon="-15.659615">
    <time>1971-01-13T13:04:23Z</time>
    </trkpt>
    <trkpt lat="28.067942" lon="-15.659562">
    <time>1971-01-13T13:04:28Z</time>
    </trkpt>
    <trkpt lat="28.067938" lon="-15.659493">
    <time>1971-01-13T13:04:34Z</time>
    </trkpt>
    <trkpt lat="28.067923" lon="-15.659407">
    <time>1971-01-13T13:04:42Z</time>
    </trkpt>
    <trkpt lat="28.067871" lon="-15.659313">
    <time>1971-01-13T13:04:51Z</time>
    </trkpt>
    <trkpt lat="28.067913" lon="-15.659377">
    <time>1971-01-13T13:04:58Z</time>
    </trkpt>
    <trkpt lat="28.067914" lon="-15.659484">
    <time>1971-01-13T13:05:08Z</time>
    </trkpt>
    <trkpt lat="28.06784" lon="-15.659592">
    <time>1971-01-13T13:05:20Z</time>
    </trkpt>
    <trkpt lat="28.0678" lon="-15.659657">
    <time>1971-01-13T13:05:27Z</time>
    </trkpt>
    <trkpt lat="28.067847" lon="-15.659977">
    <time>1971-01-13T13:05:56Z</time>
    </trkpt>
    <trkpt lat="28.067897" lon="-15.660048">
    <time>1971-01-13T13:06:04Z</time>
    </trkpt>
    <trkpt lat="28.068038" lon="-15.660196">
    <time>1971-01-13T13:06:23Z</time>
    </trkpt>
    <trkpt lat="28.068123" lon="-15.660181">
    <time>1971-01-13T13:06:31Z</time>
    </trkpt>
    <trkpt lat="28.068158" lon="-15.660104">
    <time>1971-01-13T13:06:39Z</time>
    </trkpt>
    <trkpt lat="28.068152" lon="-15.659999">
    <time>1971-01-13T13:06:48Z</time>
    </trkpt>
    <trkpt lat="28.068197" lon="-15.659932">
    <time>1971-01-13T13:06:56Z</time>
    </trkpt>
    <trkpt lat="28.068224" lon="-15.660029">
    <time>1971-01-13T13:07:05Z</time>
    </trkpt>
    <trkpt lat="28.068281" lon="-15.660034">
    <time>1971-01-13T13:07:10Z</time>
    </trkpt>
    <trkpt lat="28.068274" lon="-15.659914">
    <time>1971-01-13T13:07:21Z</time>
    </trkpt>
    <trkpt lat="28.068321" lon="-15.659857">
    <time>1971-01-13T13:07:28Z</time>
    </trkpt>
    <trkpt lat="28.068386" lon="-15.659788">
    <time>1971-01-13T13:07:37Z</time>
    </trkpt>
    <trkpt lat="28.068528" lon="-15.659699">
    <time>1971-01-13T13:07:53Z</time>
    </trkpt>
    <trkpt lat="28.068575" lon="-15.659673">
    <time>1971-01-13T13:07:58Z</time>
    </trkpt>
    <trkpt lat="28.068626" lon="-15.659639">
    <time>1971-01-13T13:08:04Z</time>
    </trkpt>
    <trkpt lat="28.068691" lon="-15.659596">
    <time>1971-01-13T13:08:12Z</time>
    </trkpt>
    <trkpt lat="28.068686" lon="-15.65965">
    <time>1971-01-13T13:08:16Z</time>
    </trkpt>
    <trkpt lat="28.068686" lon="-15.659725">
    <time>1971-01-13T13:08:23Z</time>
    </trkpt>
    <trkpt lat="28.068713" lon="-15.659968">
    <time>1971-01-13T13:08:45Z</time>
    </trkpt>
    <trkpt lat="28.068843" lon="-15.660219">
    <time>1971-01-13T13:09:10Z</time>
    </trkpt>
    <trkpt lat="28.068809" lon="-15.660268">
    <time>1971-01-13T13:09:16Z</time>
    </trkpt>
    <trkpt lat="28.068845" lon="-15.660573">
    <time>1971-01-13T13:09:43Z</time>
    </trkpt>
    <trkpt lat="28.06883" lon="-15.660775">
    <time>1971-01-13T13:10:01Z</time>
    </trkpt>
    <trkpt lat="28.068785" lon="-15.661067">
    <time>1971-01-13T13:10:27Z</time>
    </trkpt>
    <trkpt lat="28.06877" lon="-15.661128">
    <time>1971-01-13T13:10:33Z</time>
    </trkpt>
    <trkpt lat="28.068763" lon="-15.661214">
    <time>1971-01-13T13:10:40Z</time>
    </trkpt>
    <trkpt lat="28.068777" lon="-15.661446">
    <time>1971-01-13T13:11:01Z</time>
    </trkpt>
    <trkpt lat="28.068823" lon="-15.661603">
    <time>1971-01-13T13:11:16Z</time>
    </trkpt>
    <trkpt lat="28.068857" lon="-15.661689">
    <time>1971-01-13T13:11:24Z</time>
    </trkpt>
    <trkpt lat="28.068973" lon="-15.661863">
    <time>1971-01-13T13:11:43Z</time>
    </trkpt>
    <trkpt lat="28.06901" lon="-15.661972">
    <time>1971-01-13T13:11:53Z</time>
    </trkpt>
    <trkpt lat="28.069047" lon="-15.662035">
    <time>1971-01-13T13:12:00Z</time>
    </trkpt>
    <trkpt lat="28.069133" lon="-15.662239">
    <time>1971-01-13T13:12:20Z</time>
    </trkpt>
    <trkpt lat="28.069164" lon="-15.662297">
    <time>1971-01-13T13:12:26Z</time>
    </trkpt>
    <trkpt lat="28.069182" lon="-15.662364">
    <time>1971-01-13T13:12:32Z</time>
    </trkpt>
    <trkpt lat="28.069232" lon="-15.66239">
    <time>1971-01-13T13:12:38Z</time>
    </trkpt>
    <trkpt lat="28.069304" lon="-15.662413">
    <time>1971-01-13T13:12:45Z</time>
    </trkpt>
    <trkpt lat="28.069434" lon="-15.662486">
    <time>1971-01-13T13:13:00Z</time>
    </trkpt>
    <trkpt lat="28.069506" lon="-15.662409">
    <time>1971-01-13T13:13:10Z</time>
    </trkpt>
    <trkpt lat="28.06952" lon="-15.662346">
    <time>1971-01-13T13:13:15Z</time>
    </trkpt>
    <trkpt lat="28.069535" lon="-15.662413">
    <time>1971-01-13T13:13:21Z</time>
    </trkpt>
    <trkpt lat="28.069657" lon="-15.662485">
    <time>1971-01-13T13:13:35Z</time>
    </trkpt>
    <trkpt lat="28.06975" lon="-15.66244">
    <time>1971-01-13T13:13:45Z</time>
    </trkpt>
    <trkpt lat="28.069871" lon="-15.662396">
    <time>1971-01-13T13:13:58Z</time>
    </trkpt>
    <trkpt lat="28.070028" lon="-15.662367">
    <time>1971-01-13T13:14:14Z</time>
    </trkpt>
    <trkpt lat="28.070037" lon="-15.662433">
    <time>1971-01-13T13:14:20Z</time>
    </trkpt>
    <trkpt lat="28.070156" lon="-15.662509">
    <time>1971-01-13T13:14:33Z</time>
    </trkpt>
    <trkpt lat="28.070211" lon="-15.662526">
    <time>1971-01-13T13:14:39Z</time>
    </trkpt>
    <trkpt lat="28.070248" lon="-15.662582">
    <time>1971-01-13T13:14:45Z</time>
    </trkpt>
    <trkpt lat="28.070203" lon="-15.662569">
    <time>1971-01-13T13:14:50Z</time>
    </trkpt>
    <trkpt lat="28.07028" lon="-15.662624">
    <time>1971-01-13T13:14:59Z</time>
    </trkpt>
    <trkpt lat="28.070359" lon="-15.662717">
    <time>1971-01-13T13:15:10Z</time>
    </trkpt>
    <trkpt lat="28.070527" lon="-15.663063">
    <time>1971-01-13T13:15:45Z</time>
    </trkpt>
    <trkpt lat="28.070587" lon="-15.66312">
    <time>1971-01-13T13:15:53Z</time>
    </trkpt>
    <trkpt lat="28.07075" lon="-15.663328">
    <time>1971-01-13T13:16:17Z</time>
    </trkpt>
    <trkpt lat="28.070789" lon="-15.663427">
    <time>1971-01-13T13:16:27Z</time>
    </trkpt>
    <trkpt lat="28.070819" lon="-15.663528">
    <time>1971-01-13T13:16:36Z</time>
    </trkpt>
    <trkpt lat="28.0711" lon="-15.663603">
    <time>1971-01-13T13:17:05Z</time>
    </trkpt>
    <trkpt lat="28.071205" lon="-15.663657">
    <time>1971-01-13T13:17:17Z</time>
    </trkpt>
    <trkpt lat="28.071339" lon="-15.663599">
    <time>1971-01-13T13:17:31Z</time>
    </trkpt>
    <trkpt lat="28.071512" lon="-15.66358">
    <time>1971-01-13T13:17:48Z</time>
    </trkpt>
    <trkpt lat="28.071657" lon="-15.663581">
    <time>1971-01-13T13:18:03Z</time>
    </trkpt>
    <trkpt lat="28.071744" lon="-15.66361">
    <time>1971-01-13T13:18:12Z</time>
    </trkpt>
    <trkpt lat="28.071852" lon="-15.663688">
    <time>1971-01-13T13:18:25Z</time>
    </trkpt>
    <trkpt lat="28.071968" lon="-15.663788">
    <time>1971-01-13T13:18:39Z</time>
    </trkpt>
    <trkpt lat="28.072062" lon="-15.66393">
    <time>1971-01-13T13:18:55Z</time>
    </trkpt>
    <trkpt lat="28.072142" lon="-15.664046">
    <time>1971-01-13T13:19:08Z</time>
    </trkpt>
    <trkpt lat="28.072185" lon="-15.664146">
    <time>1971-01-13T13:19:18Z</time>
    </trkpt>
    <trkpt lat="28.072255" lon="-15.664234">
    <time>1971-01-13T13:19:28Z</time>
    </trkpt>
    <trkpt lat="28.072302" lon="-15.664384">
    <time>1971-01-13T13:19:42Z</time>
    </trkpt>
    <trkpt lat="28.07238" lon="-15.664529">
    <time>1971-01-13T13:19:57Z</time>
    </trkpt>
    <trkpt lat="28.072445" lon="-15.664678">
    <time>1971-01-13T13:20:12Z</time>
    </trkpt>
    <trkpt lat="28.072492" lon="-15.664757">
    <time>1971-01-13T13:20:20Z</time>
    </trkpt>
    <trkpt lat="28.072566" lon="-15.664943">
    <time>1971-01-13T13:20:38Z</time>
    </trkpt>
    <trkpt lat="28.072616" lon="-15.665035">
    <time>1971-01-13T13:20:48Z</time>
    </trkpt>
    <trkpt lat="28.072673" lon="-15.665093">
    <time>1971-01-13T13:20:55Z</time>
    </trkpt>
    <trkpt lat="28.072779" lon="-15.665245">
    <time>1971-01-13T13:21:12Z</time>
    </trkpt>
    <trkpt lat="28.072894" lon="-15.665361">
    <time>1971-01-13T13:21:28Z</time>
    </trkpt>
    <trkpt lat="28.072906" lon="-15.665389">
    <time>1971-01-13T13:21:31Z</time>
    </trkpt>
    <trkpt lat="28.072905" lon="-15.665389">
    <time>1971-01-13T13:21:31Z</time>
    </trkpt>
    <trkpt lat="28.072905" lon="-15.665389">
    <time>1971-01-13T13:21:31Z</time>
    </trkpt>
    <trkpt lat="28.072902" lon="-15.665388">
    <time>1971-01-13T13:21:31Z</time>
    </trkpt>
    <trkpt lat="28.072902" lon="-15.665388">
    <time>1971-01-13T13:21:31Z</time>
    </trkpt>
    <trkpt lat="28.072902" lon="-15.665388">
    <time>1971-01-13T13:21:31Z</time>
    </trkpt>
    <trkpt lat="28.072901" lon="-15.665383">
    <time>1971-01-13T13:21:31Z</time>
    </trkpt>
    <trkpt lat="28.072902" lon="-15.665384">
    <time>1971-01-13T13:21:32Z</time>
    </trkpt>
    <trkpt lat="28.07291" lon="-15.665392">
    <time>1971-01-13T13:21:33Z</time>
    </trkpt>
    <trkpt lat="28.072893" lon="-15.66538">
    <time>1971-01-13T13:21:35Z</time>
    </trkpt>
    <trkpt lat="28.073012" lon="-15.665505">
    <time>1971-01-13T13:21:51Z</time>
    </trkpt>
    <trkpt lat="28.073185" lon="-15.665495">
    <time>1971-01-13T13:22:08Z</time>
    </trkpt>
    <trkpt lat="28.073386" lon="-15.665488">
    <time>1971-01-13T13:22:28Z</time>
    </trkpt>
    <trkpt lat="28.073551" lon="-15.665472">
    <time>1971-01-13T13:22:45Z</time>
    </trkpt>
    <trkpt lat="28.073575" lon="-15.665458">
    <time>1971-01-13T13:22:47Z</time>
    </trkpt>
    <trkpt lat="28.073575" lon="-15.665457">
    <time>1971-01-13T13:22:47Z</time>
    </trkpt>
    <trkpt lat="28.073578" lon="-15.665466">
    <time>1971-01-13T13:22:48Z</time>
    </trkpt>
    <trkpt lat="28.073578" lon="-15.665465">
    <time>1971-01-13T13:22:48Z</time>
    </trkpt>
    <trkpt lat="28.073577" lon="-15.665464">
    <time>1971-01-13T13:22:49Z</time>
    </trkpt>
    <trkpt lat="28.07361" lon="-15.665474">
    <time>1971-01-13T13:22:52Z</time>
    </trkpt>
    <trkpt lat="28.073797" lon="-15.665569">
    <time>1971-01-13T13:23:12Z</time>
    </trkpt>
    <trkpt lat="28.073917" lon="-15.665677">
    <time>1971-01-13T13:23:28Z</time>
    </trkpt>
    <trkpt lat="28.074176" lon="-15.665796">
    <time>1971-01-13T13:23:56Z</time>
    </trkpt>
    <trkpt lat="28.074373" lon="-15.665967">
    <time>1971-01-13T13:24:20Z</time>
    </trkpt>
    <trkpt lat="28.074471" lon="-15.666048">
    <time>1971-01-13T13:24:32Z</time>
    </trkpt>
    <trkpt lat="28.074494" lon="-15.666058">
    <time>1971-01-13T13:24:35Z</time>
    </trkpt>
    <trkpt lat="28.07453" lon="-15.666063">
    <time>1971-01-13T13:24:39Z</time>
    </trkpt>
    <trkpt lat="28.074532" lon="-15.666066">
    <time>1971-01-13T13:24:39Z</time>
    </trkpt>
    <trkpt lat="28.074531" lon="-15.666065">
    <time>1971-01-13T13:24:39Z</time>
    </trkpt>
    <trkpt lat="28.074531" lon="-15.666065">
    <time>1971-01-13T13:24:39Z</time>
    </trkpt>
    <trkpt lat="28.074576" lon="-15.666102">
    <time>1971-01-13T13:24:45Z</time>
    </trkpt>
    <trkpt lat="28.07459" lon="-15.666115">
    <time>1971-01-13T13:24:46Z</time>
    </trkpt>
    <trkpt lat="28.074596" lon="-15.666121">
    <time>1971-01-13T13:24:47Z</time>
    </trkpt>
    <trkpt lat="28.074642" lon="-15.666179">
    <time>1971-01-13T13:24:54Z</time>
    </trkpt>
    <trkpt lat="28.074667" lon="-15.666223">
    <time>1971-01-13T13:24:59Z</time>
    </trkpt>
    <trkpt lat="28.074692" lon="-15.666245">
    <time>1971-01-13T13:25:02Z</time>
    </trkpt>
    <trkpt lat="28.074745" lon="-15.66633">
    <time>1971-01-13T13:25:11Z</time>
    </trkpt>
    <trkpt lat="28.074843" lon="-15.66642">
    <time>1971-01-13T13:25:24Z</time>
    </trkpt>
    <trkpt lat="28.074882" lon="-15.666478">
    <time>1971-01-13T13:25:30Z</time>
    </trkpt>
    <trkpt lat="28.074967" lon="-15.66658">
    <time>1971-01-13T13:25:42Z</time>
    </trkpt>
    <trkpt lat="28.074999" lon="-15.666625">
    <time>1971-01-13T13:25:47Z</time>
    </trkpt>
    <trkpt lat="28.075127" lon="-15.666743">
    <time>1971-01-13T13:26:04Z</time>
    </trkpt>
    <trkpt lat="28.07522" lon="-15.666841">
    <time>1971-01-13T13:26:17Z</time>
    </trkpt>
    <trkpt lat="28.075349" lon="-15.666989">
    <time>1971-01-13T13:26:35Z</time>
    </trkpt>
    <trkpt lat="28.075563" lon="-15.667134">
    <time>1971-01-13T13:27:00Z</time>
    </trkpt>
    <trkpt lat="28.07558" lon="-15.667129">
    <time>1971-01-13T13:27:02Z</time>
    </trkpt>
    <trkpt lat="28.07578" lon="-15.667152">
    <time>1971-01-13T13:27:22Z</time>
    </trkpt>
    <trkpt lat="28.075878" lon="-15.667198">
    <time>1971-01-13T13:27:32Z</time>
    </trkpt>
    <trkpt lat="28.076048" lon="-15.667344">
    <time>1971-01-13T13:27:53Z</time>
    </trkpt>
    <trkpt lat="28.076056" lon="-15.667348">
    <time>1971-01-13T13:27:54Z</time>
    </trkpt>
    <trkpt lat="28.076055" lon="-15.667358">
    <time>1971-01-13T13:27:55Z</time>
    </trkpt>
    <trkpt lat="28.076051" lon="-15.667365">
    <time>1971-01-13T13:27:56Z</time>
    </trkpt>
    <trkpt lat="28.07609" lon="-15.66739">
    <time>1971-01-13T13:28:00Z</time>
    </trkpt>
    <trkpt lat="28.07609" lon="-15.66739">
    <time>1971-01-13T13:28:00Z</time>
    </trkpt>
    <trkpt lat="28.076091" lon="-15.66739">
    <time>1971-01-13T13:28:01Z</time>
    </trkpt>
    <trkpt lat="28.07609" lon="-15.66739">
    <time>1971-01-13T13:28:01Z</time>
    </trkpt>
    <trkpt lat="28.07609" lon="-15.66739">
    <time>1971-01-13T13:28:01Z</time>
    </trkpt>
    <trkpt lat="28.07609" lon="-15.66739">
    <time>1971-01-13T13:28:01Z</time>
    </trkpt>
    <trkpt lat="28.076092" lon="-15.667392">
    <time>1971-01-13T13:28:01Z</time>
    </trkpt>
    <trkpt lat="28.076092" lon="-15.667394">
    <time>1971-01-13T13:28:01Z</time>
    </trkpt>
    <trkpt lat="28.076103" lon="-15.667469">
    <time>1971-01-13T13:28:08Z</time>
    </trkpt>
    <trkpt lat="28.076085" lon="-15.66759">
    <time>1971-01-13T13:28:19Z</time>
    </trkpt>
    <trkpt lat="28.076099" lon="-15.667775">
    <time>1971-01-13T13:28:35Z</time>
    </trkpt>
    <trkpt lat="28.076096" lon="-15.667792">
    <time>1971-01-13T13:28:37Z</time>
    </trkpt>
    <trkpt lat="28.076112" lon="-15.667875">
    <time>1971-01-13T13:28:44Z</time>
    </trkpt>
    <trkpt lat="28.076125" lon="-15.66793">
    <time>1971-01-13T13:28:49Z</time>
    </trkpt>
    <trkpt lat="28.076198" lon="-15.668055">
    <time>1971-01-13T13:29:02Z</time>
    </trkpt>
    <trkpt lat="28.076196" lon="-15.668111">
    <time>1971-01-13T13:29:07Z</time>
    </trkpt>
    <trkpt lat="28.076196" lon="-15.668118">
    <time>1971-01-13T13:29:08Z</time>
    </trkpt>
    <trkpt lat="28.076196" lon="-15.668125">
    <time>1971-01-13T13:29:08Z</time>
    </trkpt>
    <trkpt lat="28.076203" lon="-15.668151">
    <time>1971-01-13T13:29:11Z</time>
    </trkpt>
    <trkpt lat="28.076221" lon="-15.668223">
    <time>1971-01-13T13:29:17Z</time>
    </trkpt>
    <trkpt lat="28.076318" lon="-15.668399">
    <time>1971-01-13T13:29:36Z</time>
    </trkpt>
    <trkpt lat="28.076419" lon="-15.668536">
    <time>1971-01-13T13:29:51Z</time>
    </trkpt>
    <trkpt lat="28.076548" lon="-15.668621">
    <time>1971-01-13T13:30:06Z</time>
    </trkpt>
    <trkpt lat="28.076714" lon="-15.668712">
    <time>1971-01-13T13:30:25Z</time>
    </trkpt>
    <trkpt lat="28.07675" lon="-15.668749">
    <time>1971-01-13T13:30:30Z</time>
    </trkpt>
    <trkpt lat="28.076775" lon="-15.668766">
    <time>1971-01-13T13:30:33Z</time>
    </trkpt>
    <trkpt lat="28.076781" lon="-15.668775">
    <time>1971-01-13T13:30:34Z</time>
    </trkpt>
    <trkpt lat="28.076868" lon="-15.668869">
    <time>1971-01-13T13:30:46Z</time>
    </trkpt>
    <trkpt lat="28.076908" lon="-15.668903">
    <time>1971-01-13T13:30:51Z</time>
    </trkpt>
    <trkpt lat="28.076916" lon="-15.668909">
    <time>1971-01-13T13:30:51Z</time>
    </trkpt>
    <trkpt lat="28.077071" lon="-15.669054">
    <time>1971-01-13T13:31:12Z</time>
    </trkpt>
    <trkpt lat="28.077232" lon="-15.669155">
    <time>1971-01-13T13:31:30Z</time>
    </trkpt>
    <trkpt lat="28.077311" lon="-15.66921">
    <time>1971-01-13T13:31:39Z</time>
    </trkpt>
    <trkpt lat="28.077367" lon="-15.669255">
    <time>1971-01-13T13:31:46Z</time>
    </trkpt>
    <trkpt lat="28.077503" lon="-15.669351">
    <time>1971-01-13T13:32:02Z</time>
    </trkpt>
    <trkpt lat="28.077628" lon="-15.669399">
    <time>1971-01-13T13:32:15Z</time>
    </trkpt>
    <trkpt lat="28.077712" lon="-15.669407">
    <time>1971-01-13T13:32:24Z</time>
    </trkpt>
    <trkpt lat="28.077723" lon="-15.669411">
    <time>1971-01-13T13:32:25Z</time>
    </trkpt>
    <trkpt lat="28.077721" lon="-15.669412">
    <time>1971-01-13T13:32:25Z</time>
    </trkpt>
    <trkpt lat="28.077747" lon="-15.669415">
    <time>1971-01-13T13:32:28Z</time>
    </trkpt>
    <trkpt lat="28.077781" lon="-15.669391">
    <time>1971-01-13T13:32:32Z</time>
    </trkpt>
    <trkpt lat="28.077818" lon="-15.669402">
    <time>1971-01-13T13:32:35Z</time>
    </trkpt>
    <trkpt lat="28.077973" lon="-15.669414">
    <time>1971-01-13T13:32:51Z</time>
    </trkpt>
    <trkpt lat="28.078065" lon="-15.669562">
    <time>1971-01-13T13:33:07Z</time>
    </trkpt>
    <trkpt lat="28.078147" lon="-15.669594">
    <time>1971-01-13T13:33:15Z</time>
    </trkpt>
    <trkpt lat="28.078151" lon="-15.669599">
    <time>1971-01-13T13:33:16Z</time>
    </trkpt>
    <trkpt lat="28.0782" lon="-15.66963">
    <time>1971-01-13T13:33:22Z</time>
    </trkpt>
    <trkpt lat="28.078287" lon="-15.669685">
    <time>1971-01-13T13:33:32Z</time>
    </trkpt>
    <trkpt lat="28.078377" lon="-15.669758">
    <time>1971-01-13T13:33:43Z</time>
    </trkpt>
    <trkpt lat="28.078442" lon="-15.669808">
    <time>1971-01-13T13:33:51Z</time>
    </trkpt>
    <trkpt lat="28.078456" lon="-15.669818">
    <time>1971-01-13T13:33:52Z</time>
    </trkpt>
    <trkpt lat="28.078504" lon="-15.669844">
    <time>1971-01-13T13:33:57Z</time>
    </trkpt>
    <trkpt lat="28.078504" lon="-15.669845">
    <time>1971-01-13T13:33:58Z</time>
    </trkpt>
    <trkpt lat="28.078504" lon="-15.669845">
    <time>1971-01-13T13:33:58Z</time>
    </trkpt>
    <trkpt lat="28.078504" lon="-15.66988">
    <time>1971-01-13T13:34:01Z</time>
    </trkpt>
    <trkpt lat="28.078411" lon="-15.67004">
    <time>1971-01-13T13:34:18Z</time>
    </trkpt>
    <trkpt lat="28.078365" lon="-15.670118">
    <time>1971-01-13T13:34:26Z</time>
    </trkpt>
    <trkpt lat="28.078371" lon="-15.670288">
    <time>1971-01-13T13:34:41Z</time>
    </trkpt>
    <trkpt lat="28.078634" lon="-15.670391">
    <time>1971-01-13T13:35:09Z</time>
    </trkpt>
    <trkpt lat="28.078893" lon="-15.670483">
    <time>1971-01-13T13:35:36Z</time>
    </trkpt>
    <trkpt lat="28.079101" lon="-15.670544">
    <time>1971-01-13T13:35:57Z</time>
    </trkpt>
    <trkpt lat="28.079342" lon="-15.67056">
    <time>1971-01-13T13:36:21Z</time>
    </trkpt>
    <trkpt lat="28.079539" lon="-15.670432">
    <time>1971-01-13T13:36:44Z</time>
    </trkpt>
    <trkpt lat="28.079611" lon="-15.670434">
    <time>1971-01-13T13:36:51Z</time>
    </trkpt>
    <trkpt lat="28.079669" lon="-15.670442">
    <time>1971-01-13T13:36:57Z</time>
    </trkpt>
    <trkpt lat="28.079942" lon="-15.670477">
    <time>1971-01-13T13:37:24Z</time>
    </trkpt>
    <trkpt lat="28.079995" lon="-15.670487">
    <time>1971-01-13T13:37:30Z</time>
    </trkpt>
    <trkpt lat="28.080002" lon="-15.670474">
    <time>1971-01-13T13:37:31Z</time>
    </trkpt>
    <trkpt lat="28.080003" lon="-15.670433">
    <time>1971-01-13T13:37:35Z</time>
    </trkpt>
    <trkpt lat="28.080014" lon="-15.670426">
    <time>1971-01-13T13:37:36Z</time>
    </trkpt>
    <trkpt lat="28.080132" lon="-15.670477">
    <time>1971-01-13T13:37:48Z</time>
    </trkpt>
    <trkpt lat="28.080263" lon="-15.670595">
    <time>1971-01-13T13:38:05Z</time>
    </trkpt>
    <trkpt lat="28.080307" lon="-15.670675">
    <time>1971-01-13T13:38:13Z</time>
    </trkpt>
    <trkpt lat="28.080311" lon="-15.670701">
    <time>1971-01-13T13:38:16Z</time>
    </trkpt>
    <trkpt lat="28.080319" lon="-15.67069">
    <time>1971-01-13T13:38:17Z</time>
    </trkpt>
    <trkpt lat="28.080319" lon="-15.670677">
    <time>1971-01-13T13:38:18Z</time>
    </trkpt>
    <trkpt lat="28.080319" lon="-15.670672">
    <time>1971-01-13T13:38:19Z</time>
    </trkpt>
    <trkpt lat="28.080309" lon="-15.670719">
    <time>1971-01-13T13:38:23Z</time>
    </trkpt>
    <trkpt lat="28.080299" lon="-15.670712">
    <time>1971-01-13T13:38:24Z</time>
    </trkpt>
    <trkpt lat="28.080317" lon="-15.670777">
    <time>1971-01-13T13:38:30Z</time>
    </trkpt>
    <trkpt lat="28.080343" lon="-15.670858">
    <time>1971-01-13T13:38:38Z</time>
    </trkpt>
    <trkpt lat="28.08049" lon="-15.671103">
    <time>1971-01-13T13:39:04Z</time>
    </trkpt>
    <trkpt lat="28.080518" lon="-15.671135">
    <time>1971-01-13T13:39:08Z</time>
    </trkpt>
    <trkpt lat="28.080556" lon="-15.671162">
    <time>1971-01-13T13:39:12Z</time>
    </trkpt>
    <trkpt lat="28.080604" lon="-15.671191">
    <time>1971-01-13T13:39:18Z</time>
    </trkpt>
    <trkpt lat="28.080597" lon="-15.671254">
    <time>1971-01-13T13:39:23Z</time>
    </trkpt>
    <trkpt lat="28.080595" lon="-15.671254">
    <time>1971-01-13T13:39:24Z</time>
    </trkpt>
    <trkpt lat="28.080593" lon="-15.671263">
    <time>1971-01-13T13:39:24Z</time>
    </trkpt>
  </trkseg>
</trk>
</gpx>
